Time;durP1;ratioP1;P1;durP2;ratioP2;P2;SDS_P1;SDS_P2;PMS_P1;PMS_P2;Temp;Humidity;BMP_temperature;BMP_pressure;BME280_temperature;BME280_humidity;BME280_pressure;Samples;Min_cycle;Max_cycle;Signal;HPM_P1;HPM_P2
2023/06/24 00:00:12;;;;;;;7.15;4.47;;;21.40;74.60;;;;;;5087830;28;20062;-68
2023/06/24 00:02:38;;;;;;;4.50;4.10;;;21.40;74.80;;;;;;5085871;28;20021;-68
2023/06/24 00:05:06;;;;;;;4.93;4.20;;;21.40;74.80;;;;;;5083450;28;20039;-68
2023/06/24 00:07:32;;;;;;;5.07;4.45;;;21.50;74.90;;;;;;5088887;28;20546;-66
2023/06/24 00:09:57;;;;;;;4.35;3.92;;;21.50;74.60;;;;;;5084662;28;20025;-68
2023/06/24 00:12:23;;;;;;;4.20;3.72;;;21.50;74.60;;;;;;5086848;28;20024;-68
2023/06/24 00:14:50;;;;;;;4.55;4.00;;;21.50;74.60;;;;;;5086555;28;20056;-67
2023/06/24 00:17:19;;;;;;;5.00;4.18;;;21.50;74.70;;;;;;5088573;28;20029;-67
2023/06/24 00:19:45;;;;;;;5.20;4.20;;;21.50;74.60;;;;;;5086833;28;20101;-68
2023/06/24 00:22:10;;;;;;;4.57;4.18;;;21.40;74.70;;;;;;5082730;28;20572;-68
2023/06/24 00:24:36;;;;;;;4.95;4.05;;;21.50;74.70;;;;;;5082365;28;21316;-68
2023/06/24 00:27:02;;;;;;;4.60;4.10;;;21.40;74.60;;;;;;5077217;28;20017;-68
2023/06/24 00:29:27;;;;;;;4.07;3.67;;;21.40;74.50;;;;;;5090654;28;20385;-67
2023/06/24 00:31:53;;;;;;;4.65;4.15;;;21.40;74.50;;;;;;5082117;28;20019;-68
2023/06/24 00:34:23;;;;;;;5.38;3.63;;;21.40;74.50;;;;;;5080471;28;20521;-70
2023/06/24 00:36:49;;;;;;;3.80;3.40;;;21.40;74.60;;;;;;5088839;28;20019;-68
2023/06/24 00:39:14;;;;;;;4.15;3.60;;;21.40;74.70;;;;;;5089160;28;20588;-68
2023/06/24 00:41:40;;;;;;;3.60;3.28;;;21.50;74.60;;;;;;5091334;28;20028;-68
2023/06/24 00:44:06;;;;;;;3.72;3.35;;;21.50;74.70;;;;;;5104059;28;20421;-69
2023/06/24 00:46:33;;;;;;;4.20;3.50;;;21.50;74.50;;;;;;5080724;28;20016;-69
2023/06/24 00:49:00;;;;;;;5.18;3.47;;;21.40;74.20;;;;;;5098848;28;20027;-69
2023/06/24 00:51:29;;;;;;;4.05;3.50;;;21.40;74.20;;;;;;5094471;28;20023;-68
2023/06/24 00:53:55;;;;;;;3.78;3.30;;;21.50;74.40;;;;;;5100539;28;20023;-69
2023/06/24 00:56:29;;;;;;;3.30;2.90;;;21.50;74.40;;;;;;5084780;28;20386;-69
2023/06/24 00:58:56;;;;;;;4.80;3.08;;;21.60;74.40;;;;;;5092387;28;20023;-68
2023/06/24 01:01:23;;;;;;;4.03;3.08;;;21.60;74.30;;;;;;5080208;28;20087;-70
2023/06/24 01:03:49;;;;;;;4.47;3.38;;;21.70;74.30;;;;;;5095619;28;20084;-69
2023/06/24 01:06:16;;;;;;;3.42;3.13;;;21.60;74.30;;;;;;5086512;28;20507;-69
2023/06/24 01:08:41;;;;;;;3.88;3.33;;;21.70;74.30;;;;;;5104090;28;20016;-68
2023/06/24 01:11:07;;;;;;;5.43;3.13;;;21.70;74.30;;;;;;5089322;28;20043;-69
2023/06/24 01:13:33;;;;;;;3.67;3.13;;;21.70;74.50;;;;;;5082716;28;20023;-70
2023/06/24 01:16:03;;;;;;;3.88;3.10;;;21.70;74.50;;;;;;5088101;28;20037;-70
2023/06/24 01:18:47;;;;;;;4.05;2.97;;;21.70;74.60;;;;;;5095158;28;20030;-69
2023/06/24 01:21:50;;;;;;;4.00;3.35;;;21.60;74.50;;;;;;5096462;28;20028;-69
2023/06/24 01:24:39;;;;;;;3.20;2.90;;;21.60;74.60;;;;;;5095471;28;20406;-69
2023/06/24 01:27:19;;;;;;;3.42;3.13;;;21.50;74.80;;;;;;5035038;28;20122;-69
2023/06/24 01:29:44;;;;;;;3.72;3.03;;;21.50;75.00;;;;;;5083109;28;20028;-69
2023/06/24 01:32:28;;;;;;;3.58;3.28;;;21.50;75.10;;;;;;5088416;28;20081;-69
2023/06/24 01:35:07;;;;;;;3.70;3.33;;;21.40;75.20;;;;;;5085468;28;20030;-68
2023/06/24 01:37:43;;;;;;;3.53;3.20;;;21.40;75.20;;;;;;5091832;28;20025;-68
2023/06/24 01:40:11;;;;;;;9.80;7.32;;;21.40;76.00;;;;;;5095171;28;20031;-68
2023/06/24 01:42:43;;;;;;;7.75;5.60;;;21.30;75.50;;;;;;5088582;28;20047;-68
2023/06/24 01:45:21;;;;;;;6.20;5.43;;;21.20;75.80;;;;;;5091257;28;20028;-67
2023/06/24 01:47:52;;;;;;;6.03;4.78;;;21.20;75.80;;;;;;5091228;28;20095;-67
2023/06/24 01:50:22;;;;;;;6.85;4.10;;;21.10;76.00;;;;;;5100061;28;20012;-68
2023/06/24 01:52:52;;;;;;;6.13;4.38;;;21.10;76.20;;;;;;5085816;28;20040;-67
2023/06/24 01:55:20;;;;;;;5.00;4.50;;;21.10;76.30;;;;;;5090675;28;20029;-68
2023/06/24 01:57:48;;;;;;;4.40;4.00;;;21.10;76.50;;;;;;5097097;28;20030;-67
2023/06/24 02:00:15;;;;;;;4.97;4.47;;;21.00;76.70;;;;;;5087126;28;20046;-69
2023/06/24 02:02:41;;;;;;;5.05;4.50;;;21.00;76.90;;;;;;5097569;28;20023;-68
2023/06/24 02:05:09;;;;;;;5.78;4.88;;;20.90;76.90;;;;;;5098923;28;20090;-67
2023/06/24 02:07:35;;;;;;;5.90;5.05;;;20.80;77.20;;;;;;5098954;28;20501;-69
2023/06/24 02:10:02;;;;;;;5.75;5.15;;;20.80;77.50;;;;;;5101910;28;20420;-69
2023/06/24 02:12:29;;;;;;;5.93;5.10;;;20.70;77.80;;;;;;5093793;28;20073;-69
2023/06/24 02:14:56;;;;;;;6.40;5.07;;;20.70;77.90;;;;;;5103999;28;20024;-69
2023/06/24 02:17:25;;;;;;;7.05;5.50;;;20.70;78.10;;;;;;5092120;28;20031;-69
2023/06/24 02:19:52;;;;;;;5.78;4.97;;;20.60;78.20;;;;;;5098933;28;20020;-69
2023/06/24 02:22:19;;;;;;;6.30;5.15;;;20.60;78.50;;;;;;5090627;28;20028;-69
2023/06/24 02:24:45;;;;;;;5.57;4.80;;;20.60;78.70;;;;;;5083629;28;20028;-69
2023/06/24 02:27:12;;;;;;;5.40;4.75;;;20.60;78.80;;;;;;5093227;28;20104;-68
2023/06/24 02:29:39;;;;;;;5.65;5.05;;;20.60;78.90;;;;;;5093483;28;20064;-68
2023/06/24 02:32:05;;;;;;;5.47;4.90;;;20.50;78.90;;;;;;5083393;28;20123;-68
2023/06/24 02:34:31;;;;;;;6.07;5.15;;;20.50;79.00;;;;;;5104339;28;20055;-67
2023/06/24 02:36:57;;;;;;;6.35;5.03;;;20.50;79.00;;;;;;5094379;28;20028;-68
2023/06/24 02:39:23;;;;;;;6.07;5.47;;;20.50;79.10;;;;;;5089507;28;20024;-68
2023/06/24 02:41:49;;;;;;;6.03;5.15;;;20.40;79.10;;;;;;5094836;28;20025;-68
2023/06/24 02:44:15;;;;;;;6.22;5.30;;;20.40;79.10;;;;;;5076817;28;20035;-68
2023/06/24 02:46:43;;;;;;;6.32;5.53;;;20.40;79.10;;;;;;5089635;28;20020;-68
2023/06/24 02:49:12;;;;;;;5.57;5.07;;;20.40;79.10;;;;;;5087825;28;20407;-68
2023/06/24 02:51:39;;;;;;;6.60;5.32;;;20.40;79.20;;;;;;5095517;28;20041;-69
2023/06/24 02:54:05;;;;;;;7.43;5.43;;;20.40;79.30;;;;;;5086402;28;20017;-69
2023/06/24 02:56:32;;;;;;;6.22;5.35;;;20.40;79.30;;;;;;5092706;28;20670;-69
2023/06/24 02:58:57;;;;;;;5.93;5.18;;;20.40;79.30;;;;;;5087116;28;20028;-68
2023/06/24 03:01:25;;;;;;;5.53;4.97;;;20.50;79.30;;;;;;5087783;28;20022;-69
2023/06/24 03:03:54;;;;;;;5.70;5.13;;;20.40;79.20;;;;;;5103389;28;20024;-68
2023/06/24 03:06:21;;;;;;;5.32;4.82;;;20.40;79.30;;;;;;5094140;28;20031;-68
2023/06/24 03:08:48;;;;;;;5.80;5.20;;;20.40;79.40;;;;;;5095165;28;20020;-67
2023/06/24 03:11:14;;;;;;;5.57;4.97;;;20.40;79.60;;;;;;5094777;28;20577;-68
2023/06/24 03:13:40;;;;;;;5.10;4.60;;;20.30;79.80;;;;;;5096037;28;20081;-67
2023/06/24 03:16:12;;;;;;;5.20;4.70;;;20.30;80.00;;;;;;5095173;28;20089;-68
2023/06/24 03:18:46;;;;;;;5.18;4.68;;;20.20;80.10;;;;;;5098441;28;20059;-70
2023/06/24 03:21:12;;;;;;;5.85;5.00;;;20.20;80.10;;;;;;5094902;28;20079;-69
2023/06/24 03:23:37;;;;;;;5.60;4.90;;;20.20;80.30;;;;;;5101508;28;20028;-69
2023/06/24 03:26:03;;;;;;;5.50;4.90;;;20.20;80.50;;;;;;5095485;28;20389;-68
2023/06/24 03:28:30;;;;;;;6.25;4.80;;;20.10;80.60;;;;;;5089596;28;20020;-68
2023/06/24 03:31:00;;;;;;;5.72;4.85;;;20.10;80.60;;;;;;5094584;28;20027;-69
2023/06/24 03:33:26;;;;;;;5.32;4.82;;;20.20;80.50;;;;;;5090174;28;20075;-68
2023/06/24 03:35:53;;;;;;;5.63;4.80;;;20.10;80.60;;;;;;5099557;28;20032;-69
2023/06/24 03:38:18;;;;;;;5.70;5.10;;;20.10;80.80;;;;;;5096086;28;20036;-68
2023/06/24 03:40:44;;;;;;;5.32;4.82;;;20.00;80.90;;;;;;5096765;28;20030;-70
2023/06/24 03:43:10;;;;;;;5.20;4.70;;;20.00;81.00;;;;;;5094378;28;20027;-69
2023/06/24 03:45:36;;;;;;;5.32;4.72;;;20.00;81.10;;;;;;5095275;28;20034;-68
2023/06/24 03:48:01;;;;;;;5.15;4.63;;;20.00;81.20;;;;;;5096122;28;20490;-68
2023/06/24 03:50:27;;;;;;;6.05;4.85;;;20.00;81.20;;;;;;5100269;28;20044;-68
2023/06/24 03:52:52;;;;;;;6.15;5.05;;;20.00;81.30;;;;;;5095662;28;20474;-68
2023/06/24 03:55:18;;;;;;;5.00;4.50;;;20.00;81.50;;;;;;5097085;28;20106;-68
2023/06/24 03:57:43;;;;;;;5.15;4.65;;;20.00;81.60;;;;;;5101771;28;20444;-68
2023/06/24 04:00:15;;;;;;;4.80;4.30;;;20.00;81.60;;;;;;5097378;28;20025;-68
2023/06/24 04:02:41;;;;;;;4.80;4.30;;;20.00;81.70;;;;;;5100612;28;20038;-69
2023/06/24 04:05:08;;;;;;;5.10;4.47;;;19.90;81.80;;;;;;5094912;28;20172;-68
2023/06/24 04:07:35;;;;;;;4.85;4.35;;;20.00;81.90;;;;;;5092900;28;20059;-69
2023/06/24 04:10:02;;;;;;;5.32;4.47;;;20.00;81.90;;;;;;5082298;28;20047;-68
2023/06/24 04:12:28;;;;;;;5.22;4.63;;;20.00;81.80;;;;;;5087681;28;20050;-69
2023/06/24 04:14:53;;;;;;;4.90;4.32;;;20.10;81.80;;;;;;5083845;28;20052;-69
2023/06/24 04:17:19;;;;;;;5.00;4.50;;;20.10;81.80;;;;;;5084796;28;20020;-68
2023/06/24 04:19:44;;;;;;;5.13;4.63;;;20.10;81.90;;;;;;5090607;28;20073;-68
2023/06/24 04:22:10;;;;;;;5.00;4.50;;;20.00;82.00;;;;;;5092671;28;20083;-69
2023/06/24 04:24:35;;;;;;;5.45;4.82;;;20.00;82.10;;;;;;5090360;28;20023;-68
2023/06/24 04:27:01;;;;;;;5.15;4.65;;;20.10;82.20;;;;;;5075527;28;20024;-67
2023/06/24 04:29:27;;;;;;;5.25;4.70;;;20.10;82.20;;;;;;5096986;28;20077;-67
2023/06/24 04:31:52;;;;;;;5.05;4.55;;;20.10;82.30;;;;;;5098973;28;20038;-68
2023/06/24 04:34:18;;;;;;;4.95;4.45;;;20.10;82.40;;;;;;5100577;28;20032;-68
2023/06/24 04:36:43;;;;;;;5.30;4.57;;;20.20;82.50;;;;;;5080258;28;20021;-67
2023/06/24 04:39:09;;;;;;;6.63;4.55;;;20.20;82.60;;;;;;5095955;28;20031;-67
2023/06/24 04:41:34;;;;;;;5.50;5.00;;;20.20;82.50;;;;;;5100533;28;20095;-69
2023/06/24 04:44:00;;;;;;;5.18;4.68;;;20.30;82.50;;;;;;5098576;28;20490;-68
2023/06/24 04:46:26;;;;;;;5.55;4.78;;;20.30;82.60;;;;;;5091948;28;20376;-68
2023/06/24 04:48:51;;;;;;;4.90;4.40;;;20.40;82.60;;;;;;5097066;28;20115;-68
2023/06/24 04:51:17;;;;;;;5.35;4.70;;;20.40;82.40;;;;;;5099290;28;20169;-68
2023/06/24 04:53:42;;;;;;;4.90;4.40;;;20.60;82.20;;;;;;5091151;28;20023;-68
2023/06/24 04:56:08;;;;;;;5.18;4.47;;;21.10;81.10;;;;;;5089750;28;20563;-67
2023/06/24 04:58:33;;;;;;;5.63;4.28;;;21.50;79.90;;;;;;5097072;28;20063;-68
2023/06/24 05:00:59;;;;;;;4.78;3.90;;;21.80;78.60;;;;;;5093943;28;20031;-68
2023/06/24 05:03:25;;;;;;;4.22;3.65;;;22.20;77.80;;;;;;5076028;28;20027;-68
2023/06/24 05:05:50;;;;;;;3.80;3.00;;;22.50;76.80;;;;;;5091877;28;20077;-68
2023/06/24 05:08:16;;;;;;;3.63;2.80;;;22.90;75.60;;;;;;5094966;28;20024;-68
2023/06/24 05:10:41;;;;;;;2.70;2.50;;;23.20;74.50;;;;;;5091851;28;20475;-68
2023/06/24 05:13:07;;;;;;;2.97;2.55;;;23.40;73.40;;;;;;5096701;28;20482;-68
2023/06/24 05:15:33;;;;;;;3.47;2.30;;;23.70;72.70;;;;;;5093109;28;20031;-68
2023/06/24 05:17:58;;;;;;;2.15;1.95;;;24.00;71.60;;;;;;5107423;28;20068;-68
2023/06/24 05:20:24;;;;;;;2.80;2.15;;;24.20;70.80;;;;;;5081150;28;20535;-68
2023/06/24 05:22:50;;;;;;;3.25;2.33;;;24.50;70.20;;;;;;5093478;28;20036;-68
2023/06/24 05:25:15;;;;;;;2.10;1.90;;;24.70;69.70;;;;;;5091949;28;20028;-68
2023/06/24 05:27:41;;;;;;;2.47;2.17;;;25.00;70.00;;;;;;5086340;28;20025;-68
2023/06/24 05:30:07;;;;;;;2.65;1.98;;;25.10;69.10;;;;;;5075372;28;20020;-68
2023/06/24 05:32:32;;;;;;;2.10;1.90;;;25.20;68.60;;;;;;5080039;28;20028;-68
2023/06/24 05:34:58;;;;;;;2.10;1.90;;;25.30;68.20;;;;;;5079576;28;20104;-68
2023/06/24 05:37:23;;;;;;;2.10;1.90;;;25.30;67.80;;;;;;5086663;28;20024;-69
2023/06/24 05:39:49;;;;;;;2.53;2.10;;;25.40;67.80;;;;;;5097176;28;20529;-69
2023/06/24 05:42:14;;;;;;;3.15;2.30;;;25.40;67.50;;;;;;5103160;28;20085;-68
2023/06/24 05:44:40;;;;;;;2.83;2.40;;;25.40;67.60;;;;;;5090585;28;20024;-68
2023/06/24 05:47:06;;;;;;;2.63;2.38;;;25.50;67.60;;;;;;5102974;28;20039;-68
2023/06/24 05:49:31;;;;;;;4.30;3.13;;;25.40;67.40;;;;;;5099889;28;20073;-68
2023/06/24 05:51:57;;;;;;;3.10;2.80;;;25.40;67.40;;;;;;5093712;28;20043;-67
2023/06/24 05:54:23;;;;;;;5.20;3.05;;;25.40;67.40;;;;;;5097579;28;20036;-68
2023/06/24 05:56:49;;;;;;;3.08;2.78;;;25.30;67.40;;;;;;5089609;28;20024;-68
2023/06/24 05:59:14;;;;;;;3.50;3.13;;;25.30;67.40;;;;;;5094732;28;20046;-69
2023/06/24 06:01:40;;;;;;;3.85;3.42;;;25.20;67.40;;;;;;5100396;28;20498;-68
2023/06/24 06:04:05;;;;;;;3.53;3.05;;;25.20;67.40;;;;;;5089197;28;20040;-67
2023/06/24 06:06:31;;;;;;;3.88;3.13;;;25.20;67.60;;;;;;5090530;28;20020;-68
2023/06/24 06:08:57;;;;;;;3.20;2.90;;;25.20;67.20;;;;;;5087155;28;20051;-69
2023/06/24 06:11:23;;;;;;;5.25;3.10;;;25.20;66.80;;;;;;5095315;28;20027;-69
2023/06/24 06:13:48;;;;;;;3.78;2.83;;;25.30;66.50;;;;;;5084204;28;20103;-67
2023/06/24 06:16:14;;;;;;;3.70;3.10;;;25.40;66.50;;;;;;5086617;28;20036;-68
2023/06/24 06:18:39;;;;;;;6.30;3.80;;;25.40;65.80;;;;;;5103430;28;20410;-68
2023/06/24 06:21:05;;;;;;;3.58;3.17;;;25.10;64.50;;;;;;5093016;28;20036;-70
2023/06/24 06:23:31;;;;;;;3.63;2.70;;;25.20;65.00;;;;;;5101346;28;20020;-69
2023/06/24 06:25:56;;;;;;;3.08;2.72;;;25.20;64.90;;;;;;5102928;28;20494;-68
2023/06/24 06:28:22;;;;;;;4.25;3.80;;;25.30;64.60;;;;;;5098606;28;20046;-69
2023/06/24 06:30:48;;;;;;;5.38;4.10;;;25.40;64.10;;;;;;5104899;28;20023;-68
2023/06/24 06:33:13;;;;;;;4.00;3.60;;;25.30;63.20;;;;;;5100870;28;20031;-68
2023/06/24 06:35:39;;;;;;;4.75;4.25;;;25.30;63.50;;;;;;5082575;28;20062;-68
2023/06/24 06:38:05;;;;;;;4.60;3.80;;;25.20;62.70;;;;;;5088722;28;20104;-68
2023/06/24 06:40:30;;;;;;;4.43;3.70;;;25.20;62.60;;;;;;5096983;28;20032;-69
2023/06/24 06:42:56;;;;;;;4.20;3.80;;;25.10;62.40;;;;;;5088961;28;20036;-69
2023/06/24 06:45:22;;;;;;;4.78;4.10;;;25.10;62.40;;;;;;5092091;28;20096;-68
2023/06/24 06:47:48;;;;;;;4.03;3.63;;;25.10;62.50;;;;;;5089633;28;20064;-67
2023/06/24 06:50:14;;;;;;;5.25;4.20;;;25.20;62.60;;;;;;5089391;28;20104;-68
2023/06/24 06:52:40;;;;;;;4.30;3.90;;;25.30;62.40;;;;;;5097166;28;21590;-68
2023/06/24 06:55:06;;;;;;;4.93;3.80;;;25.50;62.00;;;;;;5089198;28;20060;-68
2023/06/24 06:57:31;;;;;;;5.40;4.10;;;25.50;62.00;;;;;;5104613;28;20360;-68
2023/06/24 06:59:57;;;;;;;5.15;4.00;;;25.70;61.90;;;;;;5096873;28;20034;-68
2023/06/24 07:02:23;;;;;;;5.15;4.35;;;25.90;61.70;;;;;;5102971;28;20031;-67
2023/06/24 07:04:50;;;;;;;3.90;3.47;;;26.00;61.40;;;;;;5094804;28;20032;-67
2023/06/24 07:07:16;;;;;;;5.50;4.35;;;26.20;61.30;;;;;;5091952;28;20062;-69
2023/06/24 07:09:41;;;;;;;4.30;3.90;;;26.20;60.70;;;;;;5093177;28;20054;-70
2023/06/24 07:12:07;;;;;;;6.57;4.63;;;26.30;60.60;;;;;;5092520;28;20040;-69
2023/06/24 07:14:33;;;;;;;6.20;5.10;;;26.40;59.50;;;;;;5093099;28;20038;-69
2023/06/24 07:16:58;;;;;;;6.07;5.07;;;26.30;59.20;;;;;;5089200;28;20401;-69
2023/06/24 07:19:24;;;;;;;4.13;3.58;;;26.20;59.00;;;;;;5090523;28;20034;-69
2023/06/24 07:21:49;;;;;;;5.68;4.20;;;26.30;59.60;;;;;;5092993;28;20035;-69
2023/06/24 07:24:15;;;;;;;5.25;4.13;;;26.40;59.50;;;;;;5090103;28;20494;-69
2023/06/24 07:26:41;;;;;;;5.43;3.90;;;26.50;59.30;;;;;;5093095;28;20020;-69
2023/06/24 07:29:07;;;;;;;5.43;4.53;;;26.70;59.10;;;;;;5086035;28;20020;-69
2023/06/24 07:31:33;;;;;;;4.63;4.10;;;26.80;58.30;;;;;;5090279;28;20043;-69
2023/06/24 07:33:59;;;;;;;4.25;3.60;;;26.80;57.90;;;;;;5091118;28;20039;-69
2023/06/24 07:36:24;;;;;;;4.13;3.63;;;26.90;57.70;;;;;;5091785;28;20023;-69
2023/06/24 07:38:50;;;;;;;4.22;3.50;;;26.90;57.30;;;;;;5088575;28;20089;-69
2023/06/24 07:41:15;;;;;;;4.72;3.30;;;27.00;56.40;;;;;;5085321;28;20119;-69
2023/06/24 07:43:41;;;;;;;5.18;3.17;;;26.90;55.60;;;;;;5085850;28;20498;-69
2023/06/24 07:46:07;;;;;;;3.25;2.95;;;27.10;55.60;;;;;;5084352;28;20504;-69
2023/06/24 07:48:32;;;;;;;7.00;5.90;;;27.20;55.50;;;;;;5081625;28;20051;-69
2023/06/24 07:50:58;;;;;;;5.78;4.95;;;26.90;53.50;;;;;;5084759;28;20025;-69
2023/06/24 07:53:24;;;;;;;5.70;4.22;;;26.80;54.80;;;;;;5086119;28;20054;-69
2023/06/24 07:55:50;;;;;;;4.65;3.90;;;27.00;55.00;;;;;;5090837;28;20101;-69
2023/06/24 07:58:15;;;;;;;4.05;3.22;;;26.80;52.90;;;;;;5089258;28;20032;-69
2023/06/24 08:00:41;;;;;;;4.80;3.65;;;26.60;52.70;;;;;;5081932;28;20025;-69
2023/06/24 08:03:07;;;;;;;5.00;3.67;;;26.60;53.00;;;;;;5081483;28;20044;-69
2023/06/24 08:05:32;;;;;;;4.07;3.30;;;26.70;53.40;;;;;;5085411;28;20398;-69
2023/06/24 08:07:58;;;;;;;4.40;3.20;;;26.80;53.70;;;;;;5084914;28;20036;-69
2023/06/24 08:10:23;;;;;;;4.57;3.72;;;27.00;53.60;;;;;;5086022;28;20019;-68
2023/06/24 08:12:49;;;;;;;3.67;2.95;;;27.10;53.10;;;;;;5085001;28;20511;-69
2023/06/24 08:15:14;;;;;;;3.22;2.60;;;27.10;52.80;;;;;;5084839;28;20486;-69
2023/06/24 08:17:40;;;;;;;3.67;2.60;;;27.10;53.00;;;;;;5084344;28;20523;-69
2023/06/24 08:20:06;;;;;;;3.55;2.88;;;27.10;52.50;;;;;;5082206;28;20103;-69
2023/06/24 08:22:32;;;;;;;3.50;2.90;;;27.30;53.10;;;;;;5081945;28;20039;-70
2023/06/24 08:24:58;;;;;;;3.58;2.97;;;27.40;53.20;;;;;;5084561;28;20096;-69
2023/06/24 08:27:24;;;;;;;3.80;2.40;;;27.40;52.50;;;;;;5080922;28;20640;-69
2023/06/24 08:29:50;;;;;;;3.38;2.58;;;27.60;52.50;;;;;;5083672;28;20040;-69
2023/06/24 08:32:15;;;;;;;3.45;2.20;;;27.60;51.60;;;;;;5083109;28;20036;-70
2023/06/24 08:34:41;;;;;;;2.85;2.50;;;27.70;51.60;;;;;;5082572;28;20495;-70
2023/06/24 08:37:07;;;;;;;3.28;2.60;;;27.80;51.20;;;;;;5085444;28;20355;-69
2023/06/24 08:39:33;;;;;;;3.47;3.00;;;27.90;50.90;;;;;;5083922;28;20487;-69
2023/06/24 08:41:59;;;;;;;3.13;2.30;;;27.90;49.80;;;;;;5081439;28;20024;-69
2023/06/24 08:44:25;;;;;;;2.85;2.40;;;27.80;49.40;;;;;;5086622;28;20382;-69
2023/06/24 08:46:50;;;;;;;2.60;2.13;;;27.90;49.50;;;;;;5088081;28;20020;-69
2023/06/24 08:49:29;;;;;;;3.28;2.67;;;28.00;49.80;;;;;;5087217;28;20039;-69
2023/06/24 08:52:03;;;;;;;4.13;3.33;;;28.10;49.80;;;;;;5083617;28;20023;-69
2023/06/24 08:54:30;;;;;;;3.70;2.80;;;28.10;49.60;;;;;;5087213;28;20553;-69
2023/06/24 08:56:56;;;;;;;4.18;3.40;;;28.20;49.90;;;;;;5090068;28;20035;-69
2023/06/24 08:59:22;;;;;;;3.50;2.97;;;28.10;48.50;;;;;;5089710;28;20168;-69
2023/06/24 09:01:48;;;;;;;2.78;2.40;;;28.10;49.00;;;;;;5081204;28;20476;-69
2023/06/24 09:04:13;;;;;;;4.30;2.85;;;28.10;48.90;;;;;;5084983;28;20039;-69
2023/06/24 09:06:39;;;;;;;4.05;2.40;;;28.10;48.40;;;;;;5085875;28;20390;-69
2023/06/24 09:09:16;;;;;;;3.33;2.50;;;28.20;48.80;;;;;;5089165;28;20020;-69
2023/06/24 09:11:50;;;;;;;2.92;2.45;;;28.30;48.70;;;;;;5086933;28;20039;-69
2023/06/24 09:14:16;;;;;;;5.22;3.20;;;28.50;48.90;;;;;;5087559;28;20024;-69
2023/06/24 09:16:41;;;;;;;4.40;3.70;;;28.50;48.00;;;;;;5090079;28;20020;-69
2023/06/24 09:19:07;;;;;;;6.03;4.57;;;28.50;47.90;;;;;;5087443;28;20028;-69
2023/06/24 09:21:34;;;;;;;5.60;4.00;;;28.30;46.50;;;;;;5086565;28;20058;-69
2023/06/24 09:24:00;;;;;;;4.78;3.60;;;28.10;46.40;;;;;;5086689;28;20103;-69
2023/06/24 09:26:27;;;;;;;4.88;3.88;;;28.10;47.30;;;;;;5083240;28;20150;-69
2023/06/24 09:28:54;;;;;;;3.95;3.25;;;28.10;47.00;;;;;;5085985;28;20658;-69
2023/06/24 09:31:19;;;;;;;2.95;2.65;;;28.20;47.60;;;;;;5087980;28;20497;-69
2023/06/24 09:33:46;;;;;;;3.20;2.67;;;28.50;47.80;;;;;;5088025;28;20024;-69
2023/06/24 09:36:16;;;;;;;4.95;3.47;;;28.70;47.70;;;;;;5089971;28;20028;-69
2023/06/24 09:38:44;;;;;;;3.47;2.80;;;28.70;47.20;;;;;;5083836;28;20024;-69
2023/06/24 09:41:10;;;;;;;2.90;2.60;;;28.70;47.50;;;;;;5085907;28;20028;-69
2023/06/24 09:43:36;;;;;;;4.68;3.90;;;28.70;47.70;;;;;;5087064;28;20035;-69
2023/06/24 09:46:06;;;;;;;4.57;3.85;;;28.50;46.70;;;;;;5087272;28;20035;-69
2023/06/24 09:48:33;;;;;;;4.05;3.10;;;28.30;46.70;;;;;;5083030;28;20052;-69
2023/06/24 09:51:01;;;;;;;3.10;2.60;;;28.30;47.40;;;;;;5086205;28;20040;-69
2023/06/24 09:53:31;;;;;;;4.25;3.33;;;28.40;47.90;;;;;;5091299;28;20108;-69
2023/06/24 09:55:59;;;;;;;3.70;2.90;;;28.50;47.70;;;;;;5087669;28;20043;-69
2023/06/24 09:58:26;;;;;;;4.00;2.70;;;28.50;47.70;;;;;;5085824;28;20394;-69
2023/06/24 10:00:52;;;;;;;3.85;2.92;;;28.50;47.70;;;;;;5088333;28;20044;-69
2023/06/24 10:03:18;;;;;;;2.92;2.50;;;28.50;47.30;;;;;;5087131;28;20036;-69
2023/06/24 10:05:44;;;;;;;4.13;2.60;;;28.40;47.80;;;;;;5089887;28;20036;-69
2023/06/24 10:08:10;;;;;;;2.80;2.55;;;28.50;47.70;;;;;;5093494;28;20042;-69
2023/06/24 10:10:36;;;;;;;3.72;3.08;;;28.60;47.80;;;;;;5086265;27;20035;-69
2023/06/24 10:13:02;;;;;;;3.50;2.85;;;28.60;47.80;;;;;;5088529;28;20030;-69
2023/06/24 10:15:28;;;;;;;5.07;4.45;;;28.70;47.80;;;;;;5088918;28;20467;-69
2023/06/24 10:17:53;;;;;;;5.30;4.40;;;28.70;46.60;;;;;;5085164;28;20028;-69
2023/06/24 10:20:26;;;;;;;4.25;3.40;;;28.70;46.80;;;;;;5087329;28;20020;-69
2023/06/24 10:22:52;;;;;;;3.55;3.10;;;28.70;47.20;;;;;;5087515;28;20122;-69
2023/06/24 10:25:18;;;;;;;4.63;4.10;;;28.90;47.10;;;;;;5091554;28;20074;-69
2023/06/24 10:27:44;;;;;;;4.25;3.60;;;29.10;46.60;;;;;;5093025;28;20044;-69
2023/06/24 10:30:18;;;;;;;4.28;3.17;;;28.90;46.00;;;;;;5090427;28;20621;-69
2023/06/24 10:32:44;;;;;;;3.60;2.88;;;28.90;46.50;;;;;;5088433;28;20156;-69
2023/06/24 10:35:29;;;;;;;4.40;3.30;;;29.10;46.50;;;;;;5090034;28;20107;-69
2023/06/24 10:38:00;;;;;;;4.53;3.20;;;29.20;46.40;;;;;;5089428;28;20020;-69
2023/06/24 10:40:36;;;;;;;4.10;3.67;;;29.20;46.60;;;;;;5089201;28;20059;-69
2023/06/24 10:43:02;;;;;;;3.45;3.00;;;29.30;46.00;;;;;;5090087;28;20032;-69
2023/06/24 10:45:27;;;;;;;2.97;2.67;;;29.40;46.30;;;;;;5087187;28;20028;-69
2023/06/24 10:47:53;;;;;;;4.90;3.90;;;29.60;46.60;;;;;;5093260;28;20363;-70
2023/06/24 10:50:23;;;;;;;4.50;3.47;;;29.60;45.70;;;;;;5086862;28;20402;-70
2023/06/24 10:52:55;;;;;;;3.53;3.10;;;29.60;45.80;;;;;;5088923;28;20058;-69
2023/06/24 10:55:28;;;;;;;5.28;3.35;;;29.60;46.20;;;;;;5090106;28;20038;-70
2023/06/24 10:57:54;;;;;;;6.05;3.70;;;29.60;46.00;;;;;;5091422;28;20059;-70
2023/06/24 11:00:21;;;;;;;3.40;3.00;;;29.50;45.60;;;;;;5092248;28;20557;-70
2023/06/24 11:02:46;;;;;;;3.55;2.85;;;29.50;46.00;;;;;;5091400;28;20039;-70
2023/06/24 11:05:12;;;;;;;3.15;2.85;;;29.80;46.00;;;;;;5092363;28;20036;-69
2023/06/24 11:07:38;;;;;;;4.43;3.53;;;29.90;46.00;;;;;;5089094;28;20035;-69
2023/06/24 11:10:06;;;;;;;4.35;3.33;;;30.00;46.00;;;;;;5086061;28;20394;-69
2023/06/24 11:12:37;;;;;;;3.70;3.20;;;30.00;45.70;;;;;;5090217;28;21351;-69
2023/06/24 11:15:07;;;;;;;3.63;3.03;;;30.10;45.70;;;;;;5091383;28;20039;-69
2023/06/24 11:17:34;;;;;;;5.22;3.70;;;30.20;45.80;;;;;;5085479;28;20032;-69
2023/06/24 11:20:00;;;;;;;5.57;3.72;;;30.20;45.10;;;;;;5087650;28;20023;-69
2023/06/24 11:22:26;;;;;;;5.50;4.50;;;30.10;45.10;;;;;;5083199;28;20032;-69
2023/06/24 11:24:53;;;;;;;5.70;4.25;;;30.20;45.00;;;;;;5086688;28;20028;-69
2023/06/24 11:27:25;;;;;;;4.88;3.90;;;30.10;44.80;;;;;;5089340;28;20031;-69
2023/06/24 11:29:53;;;;;;;3.75;3.10;;;30.10;45.10;;;;;;5086754;28;20024;-69
2023/06/24 11:32:19;;;;;;;4.32;3.20;;;30.10;45.30;;;;;;5088750;28;20020;-69
2023/06/24 11:34:44;;;;;;;3.35;2.75;;;30.30;45.50;;;;;;5089065;28;20029;-69
2023/06/24 11:37:14;;;;;;;3.88;3.20;;;30.50;45.60;;;;;;5089525;28;20138;-69
2023/06/24 11:39:40;;;;;;;4.30;3.23;;;30.60;44.90;;;;;;5087020;28;20154;-69
2023/06/24 11:42:10;;;;;;;3.85;3.20;;;30.70;45.00;;;;;;5089868;28;20546;-70
2023/06/24 11:44:40;;;;;;;4.70;3.67;;;30.80;45.00;;;;;;5089024;28;20502;-70
2023/06/24 11:47:07;;;;;;;4.95;3.80;;;30.80;44.40;;;;;;5084463;28;20036;-69
2023/06/24 11:49:58;;;;;;;3.35;2.60;;;30.70;44.30;;;;;;5084824;28;20208;-69
2023/06/24 11:52:45;;;;;;;2.95;2.35;;;30.90;44.80;;;;;;5086545;28;20020;-69
2023/06/24 11:55:17;;;;;;;2.70;2.50;;;31.20;44.60;;;;;;5088720;28;20032;-69
2023/06/24 11:58:06;;;;;;;2.80;2.47;;;31.30;44.30;;;;;;5086768;28;20046;-69
2023/06/24 12:00:35;;;;;;;2.85;2.17;;;31.50;44.30;;;;;;5085488;28;20028;-69
2023/06/24 12:03:08;;;;;;;3.00;2.30;;;31.70;44.20;;;;;;5087735;28;20020;-69
2023/06/24 12:05:35;;;;;;;5.03;3.42;;;31.90;44.00;;;;;;5086839;28;20028;-69
2023/06/24 12:08:04;;;;;;;4.57;3.88;;;31.70;43.10;;;;;;5086895;28;20020;-69
2023/06/24 12:10:33;;;;;;;3.80;3.33;;;31.70;42.70;;;;;;5088403;28;20028;-69
2023/06/24 12:12:59;;;;;;;4.32;3.15;;;31.60;42.70;;;;;;5085476;28;20027;-70
2023/06/24 12:15:25;;;;;;;2.70;2.50;;;31.40;42.70;;;;;;5086646;28;20379;-69
2023/06/24 12:17:50;;;;;;;2.90;2.60;;;31.70;43.30;;;;;;5085218;28;20059;-69
2023/06/24 12:20:17;;;;;;;3.05;2.53;;;31.90;43.30;;;;;;5088719;28;20035;-69
2023/06/24 12:22:43;;;;;;;3.25;2.55;;;32.20;42.90;;;;;;5085740;28;20271;-69
2023/06/24 12:25:09;;;;;;;5.43;4.20;;;32.20;42.40;;;;;;5082937;28;20103;-69
2023/06/24 12:27:35;;;;;;;4.28;2.85;;;31.80;41.50;;;;;;5087588;28;20103;-69
2023/06/24 12:30:01;;;;;;;3.22;2.92;;;31.80;42.60;;;;;;5087031;28;20036;-69
2023/06/24 12:32:26;;;;;;;2.70;2.33;;;32.00;42.70;;;;;;5089290;28;20072;-69
2023/06/24 12:34:52;;;;;;;2.50;2.30;;;32.20;42.90;;;;;;5086744;28;20060;-69
2023/06/24 12:37:18;;;;;;;2.28;2.08;;;32.50;42.90;;;;;;5084293;28;20024;-69
2023/06/24 12:39:45;;;;;;;4.82;2.42;;;32.50;42.60;;;;;;5088230;28;20051;-69
2023/06/24 12:42:11;;;;;;;3.05;2.38;;;32.70;42.50;;;;;;5088122;28;20016;-70
2023/06/24 12:44:37;;;;;;;3.00;2.70;;;32.70;42.30;;;;;;5085318;28;20028;-69
2023/06/24 12:47:02;;;;;;;3.10;2.80;;;32.70;42.10;;;;;;5085013;28;20036;-69